Terminal Aerodrome Forecast
Issued by NWS

Home | Current Version | Previous Version | Text Only | Print | Product List | Glossary On
Versions: 1 2 3 4 5 6 7 8 9 10 11 12 13
000
FTAK31 PAJN 181740
TAFAWG
TAF
PAWG 181740Z 1818/1918 10010KT P6SM -RA SCT035 OVC045
     FM182000 12011KT P6SM -SHRA SCT030 OVC045
     FM190200 09007KT P6SM VCSH BKN045 BKN090
      AMD LTD TO CLD VIS AND WIND 1906/1915=

USA.gov is the U.S. government's official web portal to all federal, state and local government web resources and services.